sensor_id;sensor_type;location;lat;lon;timestamp;pressure;altitude;pressure_sealevel;temperature;humidity
64516;BME280;50891;37.380;-122.076;2022-09-13T00:02:05;100848.59;;;32.06;32.12
64516;BME280;50891;37.380;-122.076;2022-09-13T00:04:32;100853.22;;;32.05;32.09
64516;BME280;50891;37.380;-122.076;2022-09-13T00:06:58;100857.56;;;32.01;31.41
64516;BME280;50891;37.380;-122.076;2022-09-13T00:09:24;100865.44;;;32.03;31.05
64516;BME280;50891;37.380;-122.076;2022-09-13T00:11:51;100864.66;;;31.97;30.55
64516;BME280;50891;37.380;-122.076;2022-09-13T00:14:17;100868.16;;;31.92;29.79
64516;BME280;50891;37.380;-122.076;2022-09-13T00:16:43;100872.50;;;31.93;28.88
64516;BME280;50891;37.380;-122.076;2022-09-13T00:19:09;100874.97;;;31.85;28.58
64516;BME280;50891;37.380;-122.076;2022-09-13T00:21:35;100871.97;;;31.76;27.91
64516;BME280;50891;37.380;-122.076;2022-09-13T00:24:02;100868.13;;;31.77;28.71
64516;BME280;50891;37.380;-122.076;2022-09-13T00:26:28;100862.19;;;31.75;28.59
64516;BME280;50891;37.380;-122.076;2022-09-13T00:28:56;100864.09;;;31.80;28.20
64516;BME280;50891;37.380;-122.076;2022-09-13T00:31:25;100840.41;;;31.70;28.04
64516;BME280;50891;37.380;-122.076;2022-09-13T00:33:52;100866.25;;;31.83;28.09
64516;BME280;50891;37.380;-122.076;2022-09-13T00:36:18;100856.19;;;31.83;27.81
64516;BME280;50891;37.380;-122.076;2022-09-13T00:38:45;100863.78;;;31.81;27.60
64516;BME280;50891;37.380;-122.076;2022-09-13T00:41:14;100868.44;;;31.81;27.58
64516;BME280;50891;37.380;-122.076;2022-09-13T00:48:50;100862.47;;;31.89;27.70
64516;BME280;50891;37.380;-122.076;2022-09-13T00:51:18;100869.22;;;31.86;27.56
64516;BME280;50891;37.380;-122.076;2022-09-13T00:53:48;100878.78;;;31.89;27.59
64516;BME280;50891;37.380;-122.076;2022-09-13T00:56:24;100865.69;;;31.91;27.82
64516;BME280;50891;37.380;-122.076;2022-09-13T00:59:00;100872.50;;;31.83;27.53
64516;BME280;50891;37.380;-122.076;2022-09-13T01:01:36;100874.13;;;31.79;27.90
64516;BME280;50891;37.380;-122.076;2022-09-13T01:04:05;100860.00;;;31.82;27.96
64516;BME280;50891;37.380;-122.076;2022-09-13T01:06:34;100860.25;;;31.81;27.79
64516;BME280;50891;37.380;-122.076;2022-09-13T01:09:02;100848.84;;;31.74;27.85
64516;BME280;50891;37.380;-122.076;2022-09-13T01:13:57;100852.38;;;31.74;28.18
64516;BME280;50891;37.380;-122.076;2022-09-13T01:16:24;100864.06;;;31.75;28.30
64516;BME280;50891;37.380;-122.076;2022-09-13T01:18:51;100856.75;;;31.75;28.32
64516;BME280;50891;37.380;-122.076;2022-09-13T01:30:19;100869.25;;;31.76;28.89
64516;BME280;50891;37.380;-122.076;2022-09-13T01:39:06;100857.81;;;31.69;28.55
64516;BME280;50891;37.380;-122.076;2022-09-13T01:47:04;100854.81;;;31.60;28.87
64516;BME280;50891;37.380;-122.076;2022-09-13T01:52:40;100861.59;;;31.47;28.91
64516;BME280;50891;37.380;-122.076;2022-09-13T01:57:53;100863.22;;;31.43;29.09
64516;BME280;50891;37.380;-122.076;2022-09-13T02:00:22;100862.88;;;31.35;29.12
64516;BME280;50891;37.380;-122.076;2022-09-13T02:07:59;100877.28;;;31.25;29.59
64516;BME280;50891;37.380;-122.076;2022-09-13T02:10:34;100863.13;;;31.28;29.55
64516;BME280;50891;37.380;-122.076;2022-09-13T02:13:05;100875.66;;;31.24;29.34
64516;BME280;50891;37.380;-122.076;2022-09-13T02:15:43;100875.34;;;31.20;29.63
64516;BME280;50891;37.380;-122.076;2022-09-13T02:18:18;100865.84;;;31.18;29.25
64516;BME280;50891;37.380;-122.076;2022-09-13T02:20:49;100870.22;;;31.24;29.22
64516;BME280;50891;37.380;-122.076;2022-09-13T02:23:23;100866.41;;;31.25;29.26
64516;BME280;50891;37.380;-122.076;2022-09-13T02:25:52;100866.41;;;31.25;29.10
64516;BME280;50891;37.380;-122.076;2022-09-13T02:28:25;100878.63;;;31.22;29.12
64516;BME280;50891;37.380;-122.076;2022-09-13T02:30:54;100885.41;;;31.20;29.15
64516;BME280;50891;37.380;-122.076;2022-09-13T02:33:27;100878.63;;;31.17;29.24
64516;BME280;50891;37.380;-122.076;2022-09-13T02:35:58;100875.09;;;31.17;29.28
64516;BME280;50891;37.380;-122.076;2022-09-13T02:38:31;100871.81;;;31.15;29.74
64516;BME280;50891;37.380;-122.076;2022-09-13T02:43:41;100872.63;;;31.10;29.75
64516;BME280;50891;37.380;-122.076;2022-09-13T02:54:41;100883.97;;;31.02;30.05
64516;BME280;50891;37.380;-122.076;2022-09-13T02:57:21;100882.59;;;30.94;30.45
64516;BME280;50891;37.380;-122.076;2022-09-13T02:59:52;100884.22;;;30.95;30.62
64516;BME280;50891;37.380;-122.076;2022-09-13T03:02:21;100882.06;;;30.97;30.99
64516;BME280;50891;37.380;-122.076;2022-09-13T03:04:50;100882.59;;;30.94;30.72
64516;BME280;50891;37.380;-122.076;2022-09-13T03:07:17;100885.06;;;30.96;31.17
64516;BME280;50891;37.380;-122.076;2022-09-13T03:09:50;100876.31;;;30.88;30.91
64516;BME280;50891;37.380;-122.076;2022-09-13T03:15:26;100895.06;;;30.90;31.06
64516;BME280;50891;37.380;-122.076;2022-09-13T03:18:28;100899.94;;;30.88;30.98
64516;BME280;50891;37.380;-122.076;2022-09-13T03:23:51;100907.47;;;30.81;30.94
64516;BME280;50891;37.380;-122.076;2022-09-13T03:26:35;100909.38;;;30.80;31.31
64516;BME280;50891;37.380;-122.076;2022-09-13T03:29:30;100914.00;;;30.75;31.25
64516;BME280;50891;37.380;-122.076;2022-09-13T03:40:54;100923.72;;;30.65;31.36
64516;BME280;50891;37.380;-122.076;2022-09-13T03:43:29;100927.75;;;30.63;31.01
64516;BME280;50891;37.380;-122.076;2022-09-13T03:46:26;100935.06;;;30.62;31.24
64516;BME280;50891;37.380;-122.076;2022-09-13T03:48:50;100935.06;;;30.62;31.06
64516;BME280;50891;37.380;-122.076;2022-09-13T03:51:17;100941.31;;;30.63;31.40
64516;BME280;50891;37.380;-122.076;2022-09-13T03:53:51;100934.25;;;30.62;31.14
64516;BME280;50891;37.380;-122.076;2022-09-13T03:56:21;100950.78;;;30.60;31.21
64516;BME280;50891;37.380;-122.076;2022-09-13T03:58:48;100955.66;;;30.58;30.81
64516;BME280;50891;37.380;-122.076;2022-09-13T04:01:20;100947.53;;;30.58;30.88
64516;BME280;50891;37.380;-122.076;2022-09-13T04:03:47;100948.38;;;30.59;31.07
64516;BME280;50891;37.380;-122.076;2022-09-13T04:06:14;100952.41;;;30.56;30.95
64516;BME280;50891;37.380;-122.076;2022-09-13T04:08:40;100949.16;;;30.54;30.64
64516;BME280;50891;37.380;-122.076;2022-09-13T04:11:06;100952.38;;;30.51;30.72
64516;BME280;50891;37.380;-122.076;2022-09-13T04:13:35;100950.75;;;30.50;31.18
64516;BME280;50891;37.380;-122.076;2022-09-13T04:16:02;100955.31;;;30.44;30.80
64516;BME280;50891;37.380;-122.076;2022-09-13T04:18:30;100945.78;;;30.42;30.78
64516;BME280;50891;37.380;-122.076;2022-09-13T04:20:58;100933.53;;;30.34;30.72
64516;BME280;50891;37.380;-122.076;2022-09-13T04:23:26;100949.28;;;30.37;30.85
64516;BME280;50891;37.380;-122.076;2022-09-13T04:25:52;100954.41;;;30.34;30.90
64516;BME280;50891;37.380;-122.076;2022-09-13T04:28:19;100954.38;;;30.29;30.93
64516;BME280;50891;37.380;-122.076;2022-09-13T04:30:47;100950.31;;;30.31;30.93
64516;BME280;50891;37.380;-122.076;2022-09-13T04:33:14;100943.25;;;30.30;31.21
64516;BME280;50891;37.380;-122.076;2022-09-13T04:35:42;100940.81;;;30.29;31.24
64516;BME280;50891;37.380;-122.076;2022-09-13T04:38:08;100934.22;;;30.24;31.17
64516;BME280;50891;37.380;-122.076;2022-09-13T04:40:35;100944.59;;;30.28;31.32
64516;BME280;50891;37.380;-122.076;2022-09-13T04:43:02;100938.53;;;30.20;31.39
64516;BME280;50891;37.380;-122.076;2022-09-13T04:45:28;100951.31;;;30.25;31.64
64516;BME280;50891;37.380;-122.076;2022-09-13T04:47:55;100957.56;;;30.25;31.39
64516;BME280;50891;37.380;-122.076;2022-09-13T04:50:23;100951.03;;;30.21;31.27
64516;BME280;50891;37.380;-122.076;2022-09-13T04:52:50;100943.38;;;30.18;31.57
64516;BME280;50891;37.380;-122.076;2022-09-13T04:55:16;100944.44;;;30.12;31.46
64516;BME280;50891;37.380;-122.076;2022-09-13T04:57:42;100941.72;;;30.12;31.45
64516;BME280;50891;37.380;-122.076;2022-09-13T05:00:09;100949.88;;;30.12;31.67
64516;BME280;50891;37.380;-122.076;2022-09-13T05:02:35;100947.16;;;30.12;31.79
64516;BME280;50891;37.380;-122.076;2022-09-13T05:05:02;100946.88;;;30.14;31.69
64516;BME280;50891;37.380;-122.076;2022-09-13T05:07:28;100944.44;;;30.12;31.93
64516;BME280;50891;37.380;-122.076;2022-09-13T05:09:54;100943.88;;;30.10;31.83
64516;BME280;50891;37.380;-122.076;2022-09-13T05:12:21;100934.63;;;30.06;31.81
64516;BME280;50891;37.380;-122.076;2022-09-13T05:14:47;100933.25;;;30.03;31.95
64516;BME280;50891;37.380;-122.076;2022-09-13T05:17:13;100929.97;;;30.01;32.18
64516;BME280;50891;37.380;-122.076;2022-09-13T05:19:39;100924.25;;;29.98;32.01
64516;BME280;50891;37.380;-122.076;2022-09-13T05:22:05;100924.75;;;29.95;32.08
64516;BME280;50891;37.380;-122.076;2022-09-13T05:24:32;100931.25;;;29.94;32.30
64516;BME280;50891;37.380;-122.076;2022-09-13T05:26:58;100932.88;;;29.95;32.08
64516;BME280;50891;37.380;-122.076;2022-09-13T05:29:24;100930.94;;;29.90;32.09
64516;BME280;50891;37.380;-122.076;2022-09-13T05:31:50;100932.28;;;29.88;32.22
64516;BME280;50891;37.380;-122.076;2022-09-13T05:34:16;100920.06;;;29.85;32.24
64516;BME280;50891;37.380;-122.076;2022-09-13T05:36:44;100919.13;;;29.74;32.27
64516;BME280;50891;37.380;-122.076;2022-09-13T05:39:14;100929.47;;;29.77;32.62
64516;BME280;50891;37.380;-122.076;2022-09-13T05:41:43;100927.56;;;29.78;32.46
64516;BME280;50891;37.380;-122.076;2022-09-13T05:44:09;100934.91;;;29.77;32.32
64516;BME280;50891;37.380;-122.076;2022-09-13T05:46:36;100925.88;;;29.72;32.62
64516;BME280;50891;37.380;-122.076;2022-09-13T05:49:02;100931.28;;;29.72;32.60
64516;BME280;50891;37.380;-122.076;2022-09-13T05:51:28;100924.25;;;29.71;32.60
64516;BME280;50891;37.380;-122.076;2022-09-13T05:53:57;100926.16;;;29.70;32.37
64516;BME280;50891;37.380;-122.076;2022-09-13T05:56:26;100935.63;;;29.68;32.44
64516;BME280;50891;37.380;-122.076;2022-09-13T05:58:53;100933.13;;;29.66;32.54
64516;BME280;50891;37.380;-122.076;2022-09-13T06:01:22;100932.31;;;29.66;32.62
64516;BME280;50891;37.380;-122.076;2022-09-13T06:03:49;100937.03;;;29.53;32.97
64516;BME280;50891;37.380;-122.076;2022-09-13T06:06:17;100941.91;;;29.51;33.03
64516;BME280;50891;37.380;-122.076;2022-09-13T06:08:44;100936.16;;;29.48;33.43
64516;BME280;50891;37.380;-122.076;2022-09-13T06:11:12;100940.44;;;29.44;33.43
64516;BME280;50891;37.380;-122.076;2022-09-13T06:13:39;100940.44;;;29.44;33.14
64516;BME280;50891;37.380;-122.076;2022-09-13T06:16:07;100951.56;;;29.42;33.16
64516;BME280;50891;37.380;-122.076;2022-09-13T06:18:35;100952.03;;;29.39;33.88
64516;BME280;50891;37.380;-122.076;2022-09-13T06:21:07;100952.00;;;29.34;35.36
64516;BME280;50891;37.380;-122.076;2022-09-13T06:23:34;100955.44;;;29.29;35.36
64516;BME280;50891;37.380;-122.076;2022-09-13T06:26:06;100955.44;;;29.29;35.68
64516;BME280;50891;37.380;-122.076;2022-09-13T06:28:33;100950.28;;;29.28;35.46
64516;BME280;50891;37.380;-122.076;2022-09-13T06:33:34;100954.53;;;29.18;35.13
64516;BME280;50891;37.380;-122.076;2022-09-13T06:36:05;100935.63;;;29.07;35.11
64516;BME280;50891;37.380;-122.076;2022-09-13T06:38:32;100952.00;;;29.12;35.31
64516;BME280;50891;37.380;-122.076;2022-09-13T06:41:19;100956.03;;;29.09;35.26
64516;BME280;50891;37.380;-122.076;2022-09-13T06:43:50;100952.25;;;29.10;34.83
64516;BME280;50891;37.380;-122.076;2022-09-13T06:46:21;100956.03;;;29.09;34.77
64516;BME280;50891;37.380;-122.076;2022-09-13T06:48:47;100952.75;;;29.07;34.67
64516;BME280;50891;37.380;-122.076;2022-09-13T06:51:19;100953.47;;;29.03;34.60
64516;BME280;50891;37.380;-122.076;2022-09-13T06:53:47;100962.97;;;29.05;34.30
64516;BME280;50891;37.380;-122.076;2022-09-13T06:56:15;100960.50;;;29.04;34.00
64516;BME280;50891;37.380;-122.076;2022-09-13T06:58:43;100958.88;;;29.03;33.97
64516;BME280;50891;37.380;-122.076;2022-09-13T07:01:21;100963.41;;;28.97;33.62
64516;BME280;50891;37.380;-122.076;2022-09-13T07:03:50;100957.69;;;28.93;33.45
64516;BME280;50891;37.380;-122.076;2022-09-13T07:06:18;100954.91;;;28.88;33.38
64516;BME280;50891;37.380;-122.076;2022-09-13T07:08:46;100955.94;;;28.87;33.36
64516;BME280;50891;37.380;-122.076;2022-09-13T07:11:14;100955.38;;;28.85;33.10
64516;BME280;50891;37.380;-122.076;2022-09-13T07:13:47;100952.09;;;28.83;33.19
64516;BME280;50891;37.380;-122.076;2022-09-13T07:16:14;100958.03;;;28.80;33.32
64516;BME280;50891;37.380;-122.076;2022-09-13T07:18:41;100947.06;;;28.70;33.13
64516;BME280;50891;37.380;-122.076;2022-09-13T07:21:08;100956.28;;;28.74;33.22
64516;BME280;50891;37.380;-122.076;2022-09-13T07:23:37;100955.75;;;28.72;33.58
64516;BME280;50891;37.380;-122.076;2022-09-13T07:26:05;100948.91;;;28.69;33.66
64516;BME280;50891;37.380;-122.076;2022-09-13T07:28:37;100947.53;;;28.67;33.74
64516;BME280;50891;37.380;-122.076;2022-09-13T07:33:31;100949.66;;;28.65;34.01
64516;BME280;50891;37.380;-122.076;2022-09-13T07:35:58;100945.56;;;28.62;33.95
64516;BME280;50891;37.380;-122.076;2022-09-13T07:38:25;100947.69;;;28.60;34.11
64516;BME280;50891;37.380;-122.076;2022-09-13T07:40:53;100947.97;;;28.58;34.08
64516;BME280;50891;37.380;-122.076;2022-09-13T07:43:20;100951.72;;;28.57;34.09
64516;BME280;50891;37.380;-122.076;2022-09-13T07:45:47;100948.44;;;28.55;33.99
64516;BME280;50891;37.380;-122.076;2022-09-13T07:48:13;100953.31;;;28.53;34.01
64516;BME280;50891;37.380;-122.076;2022-09-13T07:50:39;100946.75;;;28.49;34.18
64516;BME280;50891;37.380;-122.076;2022-09-13T07:53:05;100935.69;;;28.39;34.19
64516;BME280;50891;37.380;-122.076;2022-09-13T07:55:31;100938.25;;;28.46;34.19
64516;BME280;50891;37.380;-122.076;2022-09-13T07:57:57;100920.94;;;28.30;34.26
64516;BME280;50891;37.380;-122.076;2022-09-13T08:00:24;100939.50;;;28.38;34.44
64516;BME280;50891;37.380;-122.076;2022-09-13T08:02:50;100930.13;;;28.29;34.48
64516;BME280;50891;37.380;-122.076;2022-09-13T08:05:17;100933.19;;;28.32;34.69
64516;BME280;50891;37.380;-122.076;2022-09-13T08:07:43;100944.25;;;28.31;34.54
64516;BME280;50891;37.380;-122.076;2022-09-13T08:10:09;100937.09;;;28.25;34.85
64516;BME280;50891;37.380;-122.076;2022-09-13T08:12:35;100931.03;;;28.17;34.88
64516;BME280;50891;37.380;-122.076;2022-09-13T08:15:01;100934.81;;;28.16;34.72
64516;BME280;50891;37.380;-122.076;2022-09-13T08:17:28;100942.34;;;28.14;34.83
64516;BME280;50891;37.380;-122.076;2022-09-13T08:19:54;100939.06;;;28.12;34.78
64516;BME280;50891;37.380;-122.076;2022-09-13T08:22:20;100942.25;;;28.09;34.99
64516;BME280;50891;37.380;-122.076;2022-09-13T08:24:46;100938.72;;;28.09;34.78
64516;BME280;50891;37.380;-122.076;2022-09-13T08:27:12;100938.16;;;28.07;34.68
64516;BME280;50891;37.380;-122.076;2022-09-13T08:29:39;100937.25;;;28.01;34.77
64516;BME280;50891;37.380;-122.076;2022-09-13T08:32:05;100934.53;;;28.01;34.63
64516;BME280;50891;37.380;-122.076;2022-09-13T08:34:31;100935.63;;;28.00;34.59
64516;BME280;50891;37.380;-122.076;2022-09-13T08:36:57;100939.88;;;27.96;34.85
64516;BME280;50891;37.380;-122.076;2022-09-13T08:39:24;100933.06;;;27.93;34.79
64516;BME280;50891;37.380;-122.076;2022-09-13T08:42:58;100928.69;;;27.92;34.78
64516;BME280;50891;37.380;-122.076;2022-09-13T08:45:03;100930.28;;;27.88;34.94
64516;BME280;50891;37.380;-122.076;2022-09-13T08:47:42;100929.44;;;27.88;34.93
64516;BME280;50891;37.380;-122.076;2022-09-13T08:50:20;100922.88;;;27.84;35.02
64516;BME280;50891;37.380;-122.076;2022-09-13T08:55:45;100925.47;;;27.79;35.11
64516;BME280;50891;37.380;-122.076;2022-09-13T09:01:10;100921.59;;;27.74;35.13
64516;BME280;50891;37.380;-122.076;2022-09-13T09:03:55;100919.13;;;27.73;35.18
64516;BME280;50891;37.380;-122.076;2022-09-13T09:06:24;100916.94;;;27.70;35.22
64516;BME280;50891;37.380;-122.076;2022-09-13T09:09:14;100907.44;;;27.67;35.16
64516;BME280;50891;37.380;-122.076;2022-09-13T09:14:21;100917.06;;;27.63;35.16
64516;BME280;50891;37.380;-122.076;2022-09-13T09:17:09;100919.19;;;27.61;35.29
64516;BME280;50891;37.380;-122.076;2022-09-13T09:19:53;100916.41;;;27.56;35.29
64516;BME280;50891;37.380;-122.076;2022-09-13T09:22:22;100918.28;;;27.56;35.33
64516;BME280;50891;37.380;-122.076;2022-09-13T09:24:54;100913.13;;;27.54;35.45
64516;BME280;50891;37.380;-122.076;2022-09-13T09:27:22;100915.72;;;27.49;35.41
64516;BME280;50891;37.380;-122.076;2022-09-13T09:29:50;100914.06;;;27.48;35.44
64516;BME280;50891;37.380;-122.076;2022-09-13T09:38:22;100901.28;;;27.43;35.52
64516;BME280;50891;37.380;-122.076;2022-09-13T09:40:53;100892.41;;;27.31;35.45
64516;BME280;50891;37.380;-122.076;2022-09-13T09:43:32;100907.41;;;27.39;35.60
64516;BME280;50891;37.380;-122.076;2022-09-13T09:46:03;100903.06;;;27.38;35.23
64516;BME280;50891;37.380;-122.076;2022-09-13T09:48:39;100899.28;;;27.39;35.45
64516;BME280;50891;37.380;-122.076;2022-09-13T09:51:07;100912.22;;;27.37;35.33
64516;BME280;50891;37.380;-122.076;2022-09-13T09:53:40;100903.56;;;27.35;35.32
64516;BME280;50891;37.380;-122.076;2022-09-13T09:56:23;100894.38;;;27.36;35.31
64516;BME280;50891;37.380;-122.076;2022-09-13T09:58:50;100887.13;;;27.24;35.47
64516;BME280;50891;37.380;-122.076;2022-09-13T10:03:53;100909.91;;;27.28;35.56
64516;BME280;50891;37.380;-122.076;2022-09-13T10:06:24;100889.72;;;27.19;35.25
64516;BME280;50891;37.380;-122.076;2022-09-13T10:09:03;100900.06;;;27.22;35.62
64516;BME280;50891;37.380;-122.076;2022-09-13T10:11:44;100906.75;;;27.20;35.78
64516;BME280;50891;37.380;-122.076;2022-09-13T10:17:20;100896.53;;;27.10;35.83
64516;BME280;50891;37.380;-122.076;2022-09-13T10:20:20;100904.75;;;27.15;35.75
64516;BME280;50891;37.380;-122.076;2022-09-13T10:25:43;100910.63;;;27.12;35.90
64516;BME280;50891;37.380;-122.076;2022-09-13T10:28:13;100905.72;;;27.09;35.95
64516;BME280;50891;37.380;-122.076;2022-09-13T10:33:33;100914.53;;;27.04;35.89
64516;BME280;50891;37.380;-122.076;2022-09-13T10:36:07;100913.69;;;27.04;35.99
64516;BME280;50891;37.380;-122.076;2022-09-13T10:38:40;100905.03;;;27.02;35.77
64516;BME280;50891;37.380;-122.076;2022-09-13T10:41:20;100908.78;;;27.01;35.88
64516;BME280;50891;37.380;-122.076;2022-09-13T10:43:50;100909.25;;;26.98;36.02
64516;BME280;50891;37.380;-122.076;2022-09-13T10:46:22;100902.69;;;26.94;35.90
64516;BME280;50891;37.380;-122.076;2022-09-13T10:48:48;100904.56;;;26.93;36.09
64516;BME280;50891;37.380;-122.076;2022-09-13T10:54:24;100900.69;;;26.89;36.18
64516;BME280;50891;37.380;-122.076;2022-09-13T10:56:50;100898.59;;;26.79;36.25
64516;BME280;50891;37.380;-122.076;2022-09-13T10:59:25;100911.38;;;26.84;36.36
64516;BME280;50891;37.380;-122.076;2022-09-13T11:07:26;100899.06;;;26.76;36.29
64516;BME280;50891;37.380;-122.076;2022-09-13T11:13:00;100897.41;;;26.75;36.18
64516;BME280;50891;37.380;-122.076;2022-09-13T11:15:46;100902.22;;;26.73;36.51
64516;BME280;50891;37.380;-122.076;2022-09-13T11:27:07;100899.41;;;26.68;36.22
64516;BME280;50891;37.380;-122.076;2022-09-13T11:29:48;100899.09;;;26.64;36.36
64516;BME280;50891;37.380;-122.076;2022-09-13T11:32:27;100904.69;;;26.63;36.29
64516;BME280;50891;37.380;-122.076;2022-09-13T11:41:07;100896.13;;;26.54;36.29
64516;BME280;50891;37.380;-122.076;2022-09-13T11:57:18;100890.13;;;26.40;36.45
64516;BME280;50891;37.380;-122.076;2022-09-13T11:59:57;100887.91;;;26.37;36.46
64516;BME280;50891;37.380;-122.076;2022-09-13T12:04:58;100889.19;;;26.35;36.42
64516;BME280;50891;37.380;-122.076;2022-09-13T12:07:45;100892.34;;;26.32;36.30
64516;BME280;50891;37.380;-122.076;2022-09-13T12:12:52;100893.03;;;26.27;36.35
64516;BME280;50891;37.380;-122.076;2022-09-13T12:15:35;100898.91;;;26.24;36.47
64516;BME280;50891;37.380;-122.076;2022-09-13T12:21:11;100901.00;;;26.22;36.54
64516;BME280;50891;37.380;-122.076;2022-09-13T12:27:40;100900.06;;;26.16;36.42
64516;BME280;50891;37.380;-122.076;2022-09-13T12:29:37;100907.78;;;26.13;36.51
64516;BME280;50891;37.380;-122.076;2022-09-13T12:32:08;100903.69;;;26.10;36.54
64516;BME280;50891;37.380;-122.076;2022-09-13T12:34:45;100900.38;;;26.08;36.73
64516;BME280;50891;37.380;-122.076;2022-09-13T13:01:24;100899.50;;;25.84;36.93
64516;BME280;50891;37.380;-122.076;2022-09-13T13:06:56;100893.38;;;25.77;36.94
64516;BME280;50891;37.380;-122.076;2022-09-13T13:12:01;100899.66;;;25.71;37.06
64516;BME280;50891;37.380;-122.076;2022-09-13T13:23:21;100912.06;;;25.60;37.26
64516;BME280;50891;37.380;-122.076;2022-09-13T13:26:11;100913.34;;;25.57;37.29
64516;BME280;50891;37.380;-122.076;2022-09-13T13:33:55;100910.72;;;25.51;37.41
64516;BME280;50891;37.380;-122.076;2022-09-13T13:36:25;100916.13;;;25.51;37.51
64516;BME280;50891;37.380;-122.076;2022-09-13T13:38:58;100916.81;;;25.46;37.55
64516;BME280;50891;37.380;-122.076;2022-09-13T13:46:43;100921.66;;;25.37;37.72
64516;BME280;50891;37.380;-122.076;2022-09-13T13:55:37;100927.13;;;25.31;37.85
64516;BME280;50891;37.380;-122.076;2022-09-13T13:58:21;100930.88;;;25.30;38.10
64516;BME280;50891;37.380;-122.076;2022-09-13T14:00:51;100935.66;;;25.28;37.97
64516;BME280;50891;37.380;-122.076;2022-09-13T14:03:55;100930.50;;;25.26;38.18
64516;BME280;50891;37.380;-122.076;2022-09-13T14:06:30;100930.13;;;25.22;38.20
64516;BME280;50891;37.380;-122.076;2022-09-13T14:09:32;100931.16;;;25.21;38.27
64516;BME280;50891;37.380;-122.076;2022-09-13T14:12:12;100928.94;;;25.18;38.22
64516;BME280;50891;37.380;-122.076;2022-09-13T14:15:19;100930.19;;;25.16;38.42
64516;BME280;50891;37.380;-122.076;2022-09-13T14:18:20;100938.69;;;25.13;38.29
64516;BME280;50891;37.380;-122.076;2022-09-13T14:21:00;100940.56;;;25.12;38.43
64516;BME280;50891;37.380;-122.076;2022-09-13T14:23:28;100945.59;;;25.09;38.37
64516;BME280;50891;37.380;-122.076;2022-09-13T14:25:59;100948.28;;;25.09;38.40
64516;BME280;50891;37.380;-122.076;2022-09-13T14:28:26;100935.84;;;25.08;38.46
64516;BME280;50891;37.380;-122.076;2022-09-13T14:30:57;100950.16;;;25.08;38.57
64516;BME280;50891;37.380;-122.076;2022-09-13T14:33:29;100952.44;;;25.05;38.76
64516;BME280;50891;37.380;-122.076;2022-09-13T14:36:06;100965.09;;;25.04;38.58
64516;BME280;50891;37.380;-122.076;2022-09-13T14:38:34;100959.91;;;25.02;38.69
64516;BME280;50891;37.380;-122.076;2022-09-13T14:41:15;100960.97;;;25.01;38.91
64516;BME280;50891;37.380;-122.076;2022-09-13T14:43:43;100962.81;;;25.01;38.75
64516;BME280;50891;37.380;-122.076;2022-09-13T14:46:25;100963.06;;;24.99;38.95
64516;BME280;50891;37.380;-122.076;2022-09-13T14:49:02;100962.25;;;24.99;38.89
64516;BME280;50891;37.380;-122.076;2022-09-13T14:51:36;100967.63;;;24.99;38.89
64516;BME280;50891;37.380;-122.076;2022-09-13T14:54:41;100973.44;;;24.96;39.15
64516;BME280;50891;37.380;-122.076;2022-09-13T14:57:27;100971.00;;;24.94;39.24
64516;BME280;50891;37.380;-122.076;2022-09-13T14:59:57;100966.63;;;24.93;39.32
64516;BME280;50891;37.380;-122.076;2022-09-13T15:02:34;100967.91;;;24.91;39.37
64516;BME280;50891;37.380;-122.076;2022-09-13T15:05:05;100965.41;;;24.89;39.53
64516;BME280;50891;37.380;-122.076;2022-09-13T15:07:37;100982.63;;;24.88;39.61
64516;BME280;50891;37.380;-122.076;2022-09-13T15:17:55;100975.28;;;24.77;40.25
64516;BME280;50891;37.380;-122.076;2022-09-13T15:20:24;100979.84;;;24.76;40.14
64516;BME280;50891;37.380;-122.076;2022-09-13T15:22:51;100977.16;;;24.76;40.25
64516;BME280;50891;37.380;-122.076;2022-09-13T15:25:28;100980.09;;;24.68;40.43
64516;BME280;50891;37.380;-122.076;2022-09-13T15:27:56;100976.22;;;24.64;40.63
64516;BME280;50891;37.380;-122.076;2022-09-13T15:30:24;100978.34;;;24.55;40.84
64516;BME280;50891;37.380;-122.076;2022-09-13T15:35:41;100977.31;;;24.56;40.94
64516;BME280;50891;37.380;-122.076;2022-09-13T15:40:45;100968.56;;;24.61;40.78
64516;BME280;50891;37.380;-122.076;2022-09-13T15:43:12;100965.16;;;24.72;40.66
64516;BME280;50891;37.380;-122.076;2022-09-13T15:45:38;100966.59;;;24.75;40.60
64516;BME280;50891;37.380;-122.076;2022-09-13T15:48:09;100965.31;;;24.77;40.50
64516;BME280;50891;37.380;-122.076;2022-09-13T15:51:08;100973.59;;;24.83;40.47
64516;BME280;50891;37.380;-122.076;2022-09-13T15:53:37;100972.38;;;24.78;40.35
64516;BME280;50891;37.380;-122.076;2022-09-13T15:56:04;100962.69;;;24.71;40.35
64516;BME280;50891;37.380;-122.076;2022-09-13T15:58:32;100960.84;;;24.71;40.30
64516;BME280;50891;37.380;-122.076;2022-09-13T16:00:58;100967.25;;;24.70;40.22
64516;BME280;50891;37.380;-122.076;2022-09-13T16:03:25;100969.94;;;24.70;40.41
64516;BME280;50891;37.380;-122.076;2022-09-13T16:05:51;100964.81;;;24.69;40.28
64516;BME280;50891;37.380;-122.076;2022-09-13T16:08:18;100965.16;;;24.72;40.33
64516;BME280;50891;37.380;-122.076;2022-09-13T16:10:45;100958.75;;;24.73;40.42
64516;BME280;50891;37.380;-122.076;2022-09-13T16:13:11;100965.78;;;24.74;40.41
64516;BME280;50891;37.380;-122.076;2022-09-13T16:15:38;100969.22;;;24.56;40.68
64516;BME280;50891;37.380;-122.076;2022-09-13T16:18:04;100964.69;;;24.57;40.81